Time;durP1;ratioP1;P1;durP2;ratioP2;P2;SDS_P1;SDS_P2;PMS_P1;PMS_P2;Temp;Humidity;BMP_temperature;BMP_pressure;BME280_temperature;BME280_humidity;BME280_pressure;Samples;Min_cycle;Max_cycle;Signal;HPM_P1;HPM_P2
2023/03/08 00:02:24;;;;;;;;;;;;;;;25.62;46.25;96134.92;590934;240;64987;-71
2023/03/08 00:04:53;;;;;;;;;;;;;;;25.61;48.66;96136.80;590939;240;65105;-71
2023/03/08 00:07:20;;;;;;;;;;;;;;;25.60;48.11;96124.47;590942;240;64686;-71
2023/03/08 00:09:48;;;;;;;;;;;;;;;25.61;48.67;96130.63;590931;240;64841;-71
2023/03/08 00:12:18;;;;;;;;;;;;;;;25.61;49.80;96130.63;590928;240;62758;-71
2023/03/08 00:14:45;;;;;;;;;;;;;;;25.58;48.53;96123.98;590994;240;65780;-70
2023/03/08 00:17:12;;;;;;;;;;;;;;;25.59;48.23;96130.16;590892;240;65080;-70
2023/03/08 00:19:40;;;;;;;;;;;;;;;25.58;49.60;96136.66;590941;240;63053;-71
2023/03/08 00:22:08;;;;;;;;;;;;;;;25.57;48.67;96127.80;590955;240;64990;-71
2023/03/08 00:24:35;;;;;;;;;;;;;;;25.57;48.76;96133.18;590927;240;64768;-71
2023/03/08 00:27:03;;;;;;;;;;;;;;;25.55;48.03;96130.02;590988;240;63865;-71
2023/03/08 00:29:31;;;;;;;;;;;;;;;25.56;50.77;96125.42;590961;240;64898;-70
2023/03/08 00:31:58;;;;;;;;;;;;;;;25.54;49.19;96123.07;590919;240;64858;-71
2023/03/08 00:34:26;;;;;;;;;;;;;;;25.53;47.94;96123.38;590926;240;65106;-71
2023/03/08 00:36:53;;;;;;;;;;;;;;;25.54;48.91;96119.59;590944;240;67268;-70
2023/03/08 00:39:21;;;;;;;;;;;;;;;25.51;47.03;96117.52;590973;240;68161;-70
2023/03/08 00:41:48;;;;;;;;;;;;;;;25.51;49.91;96123.72;590931;240;64915;-70
2023/03/08 00:44:16;;;;;;;;;;;;;;;25.50;49.89;96110.58;590914;240;67289;-71
2023/03/08 00:46:43;;;;;;;;;;;;;;;25.50;50.54;96115.95;590921;240;67083;-71
2023/03/08 00:49:13;;;;;;;;;;;;;;;25.49;49.77;96117.08;591007;240;43998;-71
2023/03/08 00:51:40;;;;;;;;;;;;;;;25.47;49.57;96118.17;590978;240;67310;-71
2023/03/08 00:54:09;;;;;;;;;;;;;;;25.46;47.71;96115.81;590932;240;67167;-71
2023/03/08 00:56:38;;;;;;;;;;;;;;;25.45;47.13;96119.59;590929;240;65063;-70
2023/03/08 00:59:06;;;;;;;;;;;;;;;25.45;48.50;96122.28;590926;240;67304;-70
2023/03/08 01:01:33;;;;;;;;;;;;;;;25.44;49.65;96118.81;590892;240;64843;-71
2023/03/08 01:04:02;;;;;;;;;;;;;;;25.43;48.30;96116.46;590971;240;62860;-71
2023/03/08 01:06:30;;;;;;;;;;;;;;;25.42;47.14;96118.34;590976;240;67233;-71
2023/03/08 01:08:57;;;;;;;;;;;;;;;25.42;50.39;96115.65;590911;240;67671;-70
2023/03/08 01:11:26;;;;;;;;;;;;;;;25.42;47.78;96109.48;590904;240;64877;-71
2023/03/08 01:13:53;;;;;;;;;;;;;;;25.42;49.17;96112.17;590926;240;64854;-63
2023/03/08 01:16:22;;;;;;;;;;;;;;;25.41;50.68;96108.70;590951;240;66944;-63
2023/03/08 01:18:51;;;;;;;;;;;;;;;25.39;47.97;96118.98;591020;240;65484;-63
2023/03/08 01:21:20;;;;;;;;;;;;;;;25.38;46.32;96109.34;590923;240;65750;-63
2023/03/08 01:23:48;;;;;;;;;;;;;;;25.39;48.07;96116.30;590938;240;67283;-63
2023/03/08 01:26:16;;;;;;;;;;;;;;;25.38;47.44;96122.02;590935;240;64948;-63
2023/03/08 01:28:44;;;;;;;;;;;;;;;25.37;48.50;96113.16;590951;240;65089;-63
2023/03/08 01:31:13;;;;;;;;;;;;;;;25.36;46.90;96105.40;591004;240;64716;-63
2023/03/08 01:33:41;;;;;;;;;;;;;;;25.35;47.95;96109.20;590918;240;65580;-64
2023/03/08 01:36:10;;;;;;;;;;;;;;;25.34;49.72;96103.02;590960;240;66854;-63
2023/03/08 01:38:38;;;;;;;;;;;;;;;25.34;47.83;96107.61;590944;240;66861;-63
2023/03/08 01:41:06;;;;;;;;;;;;;;;25.33;47.33;96106.05;590926;240;65157;-63
2023/03/08 01:43:38;;;;;;;;;;;;;;;25.32;46.93;96107.95;590992;240;67276;-63
2023/03/08 01:46:11;;;;;;;;;;;;;;;25.32;47.10;96101.76;591041;240;43697;-63
2023/03/08 01:48:41;;;;;;;;;;;;;;;25.30;47.74;96102.09;590939;240;62496;-64
2023/03/08 01:51:12;;;;;;;;;;;;;;;25.30;47.26;96102.09;590380;240;45346;-64
2023/03/08 01:53:40;;;;;;;;;;;;;;;25.30;48.29;96106.69;590919;240;67029;-63
2023/03/08 01:56:09;;;;;;;;;;;;;;;25.28;46.96;96109.69;590917;240;62978;-63
2023/03/08 01:58:38;;;;;;;;;;;;;;;25.28;48.01;96106.21;590990;240;67154;-71
2023/03/08 02:01:06;;;;;;;;;;;;;;;25.27;48.48;96105.42;590920;240;67716;-63
2023/03/08 02:03:34;;;;;;;;;;;;;;;25.27;49.63;96105.42;590882;240;65689;-63
2023/03/08 02:06:03;;;;;;;;;;;;;;;25.25;46.35;96104.95;590924;240;67795;-63
2023/03/08 02:08:33;;;;;;;;;;;;;;;25.26;51.45;96109.20;590942;240;66628;-63
2023/03/08 02:11:01;;;;;;;;;;;;;;;25.24;47.72;96106.86;590969;240;65222;-63
2023/03/08 02:13:30;;;;;;;;;;;;;;;25.23;47.00;96104.48;590918;240;67391;-63
2023/03/08 02:15:58;;;;;;;;;;;;;;;25.23;46.58;96112.54;590892;240;67434;-63
2023/03/08 02:18:26;;;;;;;;;;;;;;;25.23;48.36;96113.33;590921;240;65675;-64
2023/03/08 02:20:54;;;;;;;;;;;;;;;25.22;48.66;96110.97;590911;240;67417;-63
2023/03/08 02:23:23;;;;;;;;;;;;;;;25.21;47.09;96104.81;590924;240;67034;-63
2023/03/08 02:26:04;;;;;;;;;;;;;;;25.19;46.48;96107.02;590824;240;64975;-63
2023/03/08 02:28:32;;;;;;;;;;;;;;;25.19;50.70;96101.64;590881;240;67299;-62
2023/03/08 02:30:59;;;;;;;;;;;;;;;25.17;48.64;96103.86;590934;240;67069;-62
2023/03/08 02:33:27;;;;;;;;;;;;;;;25.18;47.46;96110.02;590916;240;65164;-70
2023/03/08 02:35:56;;;;;;;;;;;;;;;25.18;49.50;96104.64;590922;240;43997;-70
2023/03/08 02:38:23;;;;;;;;;;;;;;;25.15;47.03;96106.06;590951;240;65590;-71
2023/03/08 02:40:51;;;;;;;;;;;;;;;25.16;48.30;96101.50;590860;240;62840;-71
2023/03/08 02:43:19;;;;;;;;;;;;;;;25.15;49.46;96102.59;590895;240;67478;-71
2023/03/08 02:45:47;;;;;;;;;;;;;;;25.14;47.88;96103.69;590909;240;66888;-71
2023/03/08 02:48:15;;;;;;;;;;;;;;;25.12;48.31;96103.20;590913;240;65106;-71
2023/03/08 02:50:42;;;;;;;;;;;;;;;25.12;49.47;96106.68;590970;240;67205;-71
2023/03/08 02:53:10;;;;;;;;;;;;;;;25.12;48.99;96100.52;590949;240;64930;-71
2023/03/08 02:55:38;;;;;;;;;;;;;;;25.10;45.79;96102.73;590876;240;62949;-71
2023/03/08 02:58:10;;;;;;;;;;;;;;;25.11;49.56;96102.42;590928;240;65130;-71
2023/03/08 03:00:38;;;;;;;;;;;;;;;25.10;47.54;96105.42;590918;240;67547;-71
2023/03/08 03:03:06;;;;;;;;;;;;;;;25.09;48.47;96109.23;590917;240;65701;-71
2023/03/08 03:05:33;;;;;;;;;;;;;;;25.08;46.96;96108.44;590939;240;64931;-71
2023/03/08 03:08:03;;;;;;;;;;;;;;;25.07;47.96;96108.75;590918;240;66746;-71
2023/03/08 03:10:30;;;;;;;;;;;;;;;25.07;47.88;96103.38;590941;240;62688;-71
2023/03/08 03:12:58;;;;;;;;;;;;;;;25.06;46.41;96112.55;590936;240;67994;-71
2023/03/08 03:15:29;;;;;;;;;;;;;;;25.06;48.04;96109.87;590955;240;43374;-71
2023/03/08 03:17:58;;;;;;;;;;;;;;;25.04;46.53;96115.55;583401;240;66332;-71
2023/03/08 03:20:26;;;;;;;;;;;;;;;25.03;48.45;96109.39;590935;240;64559;-71
2023/03/08 03:22:53;;;;;;;;;;;;;;;25.03;47.95;96111.30;591005;240;65518;-71
2023/03/08 03:25:22;;;;;;;;;;;;;;;25.02;47.40;96118.58;590942;240;43835;-71
2023/03/08 03:27:50;;;;;;;;;;;;;;;25.01;48.42;96116.97;590978;240;68421;-70
2023/03/08 03:30:18;;;;;;;;;;;;;;;25.01;46.91;96108.91;590941;240;67856;-71
2023/03/08 03:32:46;;;;;;;;;;;;;;;25.00;47.02;96115.41;590955;240;62501;-69
2023/03/08 03:35:14;;;;;;;;;;;;;;;24.99;46.62;96123.77;590972;240;68000;-71
2023/03/08 03:37:41;;;;;;;;;;;;;;;24.99;48.23;96139.91;590980;240;67025;-71
2023/03/08 03:40:10;;;;;;;;;;;;;;;24.97;45.54;96136.77;590988;240;65174;-71
2023/03/08 03:42:38;;;;;;;;;;;;;;;24.98;48.27;96138.33;590988;240;67435;-71
2023/03/08 03:45:07;;;;;;;;;;;;;;;24.96;44.75;96133.30;590930;240;43279;-71
2023/03/08 03:47:35;;;;;;;;;;;;;;;24.96;45.48;96137.85;590980;240;65079;-71
2023/03/08 03:50:04;;;;;;;;;;;;;;;24.94;47.12;96135.50;590988;240;67782;-63
2023/03/08 03:52:34;;;;;;;;;;;;;;;24.93;46.12;96147.34;590626;240;45431;-63
2023/03/08 03:55:02;;;;;;;;;;;;;;;24.95;48.32;96149.72;590948;240;66277;-71
2023/03/08 03:57:31;;;;;;;;;;;;;;;24.93;47.47;96139.28;590990;240;65372;-71
2023/03/08 03:59:58;;;;;;;;;;;;;;;24.91;48.08;96146.89;590957;240;67479;-71
2023/03/08 04:02:27;;;;;;;;;;;;;;;24.90;47.16;96150.66;583367;240;62437;-71
2023/03/08 04:04:57;;;;;;;;;;;;;;;24.90;46.01;96155.25;591003;240;47483;-71
2023/03/08 04:07:26;;;;;;;;;;;;;;;24.89;47.24;96154.47;590999;240;44065;-71
2023/03/08 04:09:58;;;;;;;;;;;;;;;24.89;46.70;96153.69;590987;240;65899;-71
2023/03/08 04:12:26;;;;;;;;;;;;;;;24.87;46.21;96164.74;590992;240;67793;-71
2023/03/08 04:14:53;;;;;;;;;;;;;;;24.87;47.21;96158.58;590974;240;66984;-71
2023/03/08 04:17:21;;;;;;;;;;;;;;;24.86;47.29;96157.80;590976;240;65752;-71
2023/03/08 04:19:50;;;;;;;;;;;;;;;24.85;47.17;96158.09;590709;240;46940;-71
2023/03/08 04:22:19;;;;;;;;;;;;;;;24.85;48.47;96160.78;590980;240;67459;-71
2023/03/08 04:24:48;;;;;;;;;;;;;;;24.84;46.33;96165.38;590735;240;47256;-71
2023/03/08 04:27:17;;;;;;;;;;;;;;;24.84;47.31;96161.91;590770;240;44579;-71
2023/03/08 04:29:45;;;;;;;;;;;;;;;24.82;45.45;96156.83;590958;240;64979;-71
2023/03/08 04:32:13;;;;;;;;;;;;;;;24.82;47.53;96159.52;590934;240;65701;-71
2023/03/08 04:34:42;;;;;;;;;;;;;;;24.81;48.93;96163.33;590563;240;49594;-71
2023/03/08 04:37:12;;;;;;;;;;;;;;;24.81;45.80;96166.02;590847;240;43080;-71
2023/03/08 04:39:40;;;;;;;;;;;;;;;24.79;45.82;96160.94;590961;240;65144;-71
2023/03/08 04:42:09;;;;;;;;;;;;;;;24.79;47.87;96160.16;583390;240;64671;-71
2023/03/08 04:44:37;;;;;;;;;;;;;;;24.78;45.73;96164.75;590899;240;67284;-71
2023/03/08 04:47:05;;;;;;;;;;;;;;;24.77;47.49;96165.86;590922;240;65736;-71
2023/03/08 04:49:37;;;;;;;;;;;;;;;24.77;47.32;96165.05;590829;240;45875;-70
2023/03/08 04:52:05;;;;;;;;;;;;;;;24.76;47.04;96169.64;590752;240;67774;-69
2023/03/08 04:54:34;;;;;;;;;;;;;;;24.76;50.74;96160.79;590776;240;65695;-70
2023/03/08 04:57:03;;;;;;;;;;;;;;;24.74;47.29;96158.41;590569;240;47493;-70
2023/03/08 04:59:32;;;;;;;;;;;;;;;24.73;49.08;96170.27;590892;240;66903;-70
2023/03/08 05:02:01;;;;;;;;;;;;;;;24.72;46.67;96179.45;590954;240;65755;-62
2023/03/08 05:04:29;;;;;;;;;;;;;;;24.72;48.21;96174.08;590981;240;66444;-63
2023/03/08 05:06:56;;;;;;;;;;;;;;;24.71;47.05;96174.37;590946;240;65101;-63
2023/03/08 05:09:25;;;;;;;;;;;;;;;24.72;46.91;96186.72;590928;240;65658;-63
2023/03/08 05:11:53;;;;;;;;;;;;;;;24.70;45.42;96189.71;590941;240;65282;-63
2023/03/08 05:14:21;;;;;;;;;;;;;;;24.70;48.42;96188.92;590893;240;67822;-63
2023/03/08 05:16:49;;;;;;;;;;;;;;;24.69;48.70;96185.45;590921;240;65760;-63
2023/03/08 05:19:16;;;;;;;;;;;;;;;24.68;47.38;96191.13;590901;240;64664;-64
2023/03/08 05:21:46;;;;;;;;;;;;;;;24.68;47.08;96183.07;590871;240;48751;-63
2023/03/08 05:24:16;;;;;;;;;;;;;;;24.66;48.52;96183.37;590935;240;65932;-63
2023/03/08 05:26:44;;;;;;;;;;;;;;;24.66;46.44;96188.75;590810;240;64398;-62
2023/03/08 05:29:13;;;;;;;;;;;;;;;24.66;47.83;96185.27;590946;240;46186;-63
2023/03/08 05:31:44;;;;;;;;;;;;;;;24.65;48.40;96195.23;590971;240;64841;-64
2023/03/08 05:34:10;;;;;;;;;;;;;;;24.65;48.11;96192.55;587136;240;68603;-64
2023/03/08 05:36:41;;;;;;;;;;;;;;;24.64;46.37;96193.66;584577;242;64634;-64
2023/03/08 05:39:10;;;;;;;;;;;;;;;24.65;47.49;96194.45;584584;242;65118;-63
2023/03/08 05:41:40;;;;;;;;;;;;;;;24.64;45.67;96190.19;584290;242;46674;-63
2023/03/08 05:44:08;;;;;;;;;;;;;;;24.65;48.11;96200.61;584565;242;67557;-63
2023/03/08 05:46:41;;;;;;;;;;;;;;;24.65;47.27;96200.61;584623;242;65346;-63
2023/03/08 05:49:08;;;;;;;;;;;;;;;24.65;48.71;96194.45;584299;242;64732;-63
2023/03/08 05:51:36;;;;;;;;;;;;;;;24.67;48.97;96202.99;584576;242;67376;-64
2023/03/08 05:54:03;;;;;;;;;;;;;;;24.67;47.58;96205.68;584577;242;63009;-63
2023/03/08 05:56:32;;;;;;;;;;;;;;;24.68;48.71;96209.94;584521;242;67703;-64
2023/03/08 05:59:01;;;;;;;;;;;;;;;24.69;46.67;96211.51;584096;242;47395;-63
2023/03/08 06:01:29;;;;;;;;;;;;;;;24.69;48.36;96206.95;584561;242;65830;-64
2023/03/08 06:03:59;;;;;;;;;;;;;;;24.70;46.26;96221.17;584316;240;44347;-64
2023/03/08 06:06:28;;;;;;;;;;;;;;;24.71;47.17;96223.52;584588;242;44258;-64
2023/03/08 06:08:57;;;;;;;;;;;;;;;24.73;47.74;96217.85;584541;240;44679;-64
2023/03/08 06:11:25;;;;;;;;;;;;;;;24.72;47.70;96227.81;584562;242;67760;-64
2023/03/08 06:13:53;;;;;;;;;;;;;;;24.76;49.14;96230.66;584558;242;65032;-64
2023/03/08 06:16:21;;;;;;;;;;;;;;;24.77;50.27;96232.22;584570;242;65682;-64
2023/03/08 06:18:49;;;;;;;;;;;;;;;24.77;47.50;96234.91;584483;242;64313;-71
2023/03/08 06:21:18;;;;;;;;;;;;;;;24.78;49.24;96242.67;584548;242;67738;-71
2023/03/08 06:23:47;;;;;;;;;;;;;;;24.79;47.42;96248.83;584521;242;65811;-65
2023/03/08 06:26:15;;;;;;;;;;;;;;;24.81;48.41;96246.62;584564;242;65309;-63
2023/03/08 06:28:43;;;;;;;;;;;;;;;24.84;50.36;96255.96;577149;242;68114;-63
2023/03/08 06:31:12;;;;;;;;;;;;;;;24.84;48.62;96255.96;584564;242;65577;-63
2023/03/08 06:33:40;;;;;;;;;;;;;;;24.85;49.25;96252.94;586887;240;65244;-62
2023/03/08 06:36:11;;;;;;;;;;;;;;;24.86;48.08;96259.92;590950;240;51178;-62
2023/03/08 06:38:39;;;;;;;;;;;;;;;24.87;47.92;96269.55;590921;240;65046;-63
2023/03/08 06:41:07;;;;;;;;;;;;;;;24.89;48.09;96259.28;590905;240;64971;-63
2023/03/08 06:43:35;;;;;;;;;;;;;;;24.90;47.15;96271.61;590858;240;67181;-63
2023/03/08 06:46:04;;;;;;;;;;;;;;;24.93;51.18;96260.22;590793;240;65096;-70
2023/03/08 06:48:32;;;;;;;;;;;;;;;24.94;50.91;96261.83;590844;240;67272;-70
2023/03/08 06:50:59;;;;;;;;;;;;;;;24.96;46.77;96270.38;590944;240;66980;-70
2023/03/08 06:53:28;;;;;;;;;;;;;;;24.96;41.15;96269.55;590205;240;65701;-63
2023/03/08 06:56:01;;;;;;;;;;;;;;;25.01;41.87;96272.88;590825;240;44412;-62
2023/03/08 06:58:27;;;;;;;;;;;;;;;25.08;41.31;96268.95;590826;240;68147;-61
2023/03/08 07:00:55;;;;;;;;;;;;;;;25.10;47.39;96275.61;590745;240;65139;-62
2023/03/08 07:03:22;;;;;;;;;;;;;;;25.11;41.95;96276.39;590827;240;67287;-61
2023/03/08 07:05:49;;;;;;;;;;;;;;;25.17;38.80;96277.84;590215;238;66815;-60
2023/03/08 07:08:17;;;;;;;;;;;;;;;25.19;46.85;96281.02;589691;240;63053;-61
2023/03/08 07:10:44;;;;;;;;;;;;;;;25.17;48.00;96277.84;589130;237;64845;-61
2023/03/08 07:13:12;;;;;;;;;;;;;;;25.16;47.35;96270.89;588636;241;67425;-60
2023/03/08 07:15:39;;;;;;;;;;;;;;;25.17;51.01;96272.46;588642;240;66083;-61
2023/03/08 07:18:07;;;;;;;;;;;;;;;25.17;48.66;96269.77;591207;240;67030;-61
2023/03/08 07:20:34;;;;;;;;;;;;;;;25.17;48.50;96262.49;587584;238;67066;-61
2023/03/08 07:23:02;;;;;;;;;;;;;;;25.18;47.71;96266.78;582294;243;65145;-61
2023/03/08 07:25:30;;;;;;;;;;;;;;;25.19;48.13;96262.97;582377;243;67271;-61
2023/03/08 07:27:59;;;;;;;;;;;;;;;25.22;48.34;96273.09;587743;238;64518;-62
2023/03/08 07:30:27;;;;;;;;;;;;;;;25.22;47.22;96267.72;588680;241;63681;-62
2023/03/08 07:32:54;;;;;;;;;;;;;;;25.25;49.75;96279.73;588783;237;66793;-61
2023/03/08 07:35:22;;;;;;;;;;;;;;;25.27;49.10;96274.06;591204;240;67793;-61
2023/03/08 07:37:49;;;;;;;;;;;;;;;25.28;48.15;96275.63;591103;237;65033;-62
2023/03/08 07:40:17;;;;;;;;;;;;;;;25.30;46.42;96281.48;591001;240;67522;-61
2023/03/08 07:42:44;;;;;;;;;;;;;;;25.30;49.35;96282.28;590994;240;67061;-63
2023/03/08 07:45:19;;;;;;;;;;;;;;;25.32;48.77;96279.25;590640;240;42144;-60
2023/03/08 07:47:48;;;;;;;;;;;;;;;25.35;46.21;96273.27;591096;240;67252;-61
2023/03/08 07:50:16;;;;;;;;;;;;;;;25.39;46.59;96280.36;591017;240;67012;-62
2023/03/08 07:52:43;;;;;;;;;;;;;;;25.47;39.60;96274.19;591196;240;65070;-60
2023/03/08 07:55:11;;;;;;;;;;;;;;;25.56;42.82;96270.70;591157;240;68270;-61
2023/03/08 07:57:39;;;;;;;;;;;;;;;25.58;44.81;96276.56;591197;240;65765;-60
2023/03/08 08:00:07;;;;;;;;;;;;;;;25.61;44.33;96271.32;591218;240;62068;-60
2023/03/08 08:02:37;;;;;;;;;;;;;;;25.64;44.56;96267.20;590601;240;48239;-63
2023/03/08 08:05:05;;;;;;;;;;;;;;;25.65;45.56;96271.50;589372;237;66995;-61
2023/03/08 08:07:32;;;;;;;;;;;;;;;25.68;44.92;96273.55;594456;237;65076;-61
2023/03/08 08:10:00;;;;;;;;;;;;;;;25.69;46.41;96275.91;598225;237;67267;-60
2023/03/08 08:12:27;;;;;;;;;;;;;;;25.70;45.84;96268.64;598196;237;67050;-64
2023/03/08 08:14:55;;;;;;;;;;;;;;;25.72;47.80;96269.09;598240;237;65094;-63
2023/03/08 08:17:22;;;;;;;;;;;;;;;25.73;41.66;96267.19;598244;237;65012;-62
2023/03/08 08:19:50;;;;;;;;;;;;;;;25.78;41.55;96259.77;598215;237;64536;-62
2023/03/08 08:22:19;;;;;;;;;;;;;;;25.78;41.19;96250.87;594429;235;47118;-62
2023/03/08 08:24:47;;;;;;;;;;;;;;;25.79;42.65;96264.02;588325;241;65257;-62
2023/03/08 08:27:14;;;;;;;;;;;;;;;25.79;41.73;96250.56;588244;241;65408;-63
2023/03/08 08:29:44;;;;;;;;;;;;;;;25.78;42.46;96257.07;596218;237;62962;-65
2023/03/08 08:32:11;;;;;;;;;;;;;;;25.79;43.27;96250.56;598174;237;64982;-64
2023/03/08 08:34:38;;;;;;;;;;;;;;;25.80;44.28;96254.83;598124;237;64970;-63
2023/03/08 08:37:06;;;;;;;;;;;;;;;25.80;43.92;96265.59;598215;237;64741;-62
2023/03/08 08:39:33;;;;;;;;;;;;;;;25.81;44.52;96245.66;598224;237;67039;-62
2023/03/08 08:42:00;;;;;;;;;;;;;;;25.82;44.29;96244.54;598164;237;67041;-61
2023/03/08 08:44:28;;;;;;;;;;;;;;;25.83;43.75;96242.63;598251;237;62848;-62
2023/03/08 08:46:57;;;;;;;;;;;;;;;25.82;44.73;96236.47;594065;237;67011;-61
2023/03/08 08:49:25;;;;;;;;;;;;;;;25.82;44.00;96231.08;582419;243;67095;-62
2023/03/08 08:51:52;;;;;;;;;;;;;;;25.83;42.58;96232.68;585765;240;65071;-61
2023/03/08 08:54:20;;;;;;;;;;;;;;;25.84;45.19;96228.11;588253;241;65186;-61
2023/03/08 08:56:47;;;;;;;;;;;;;;;25.84;44.97;96231.59;588001;237;65165;-61
2023/03/08 08:59:15;;;;;;;;;;;;;;;25.85;44.64;96219.70;588058;237;63436;-61
2023/03/08 09:01:43;;;;;;;;;;;;;;;25.87;43.04;96222.87;589327;237;67282;-61
2023/03/08 09:04:12;;;;;;;;;;;;;;;25.87;43.28;96222.08;595476;237;67086;-61
2023/03/08 09:06:40;;;;;;;;;;;;;;;25.87;45.09;96230.94;587852;238;65221;-63
2023/03/08 09:09:07;;;;;;;;;;;;;;;25.88;42.74;96229.82;588330;241;67221;-61
2023/03/08 09:11:35;;;;;;;;;;;;;;;25.89;42.07;96219.84;588374;241;67154;-62
2023/03/08 09:14:02;;;;;;;;;;;;;;;25.90;44.37;96229.51;588419;241;65112;-63
2023/03/08 09:16:31;;;;;;;;;;;;;;;25.91;43.30;96228.39;588318;241;67452;-61
2023/03/08 09:19:00;;;;;;;;;;;;;;;25.94;38.93;96226.95;588297;241;67004;-61
2023/03/08 09:21:28;;;;;;;;;;;;;;;25.98;41.12;96233.30;588385;241;65329;-61
2023/03/08 09:23:57;;;;;;;;;;;;;;;25.99;42.08;96237.55;588310;241;67273;-62
2023/03/08 09:26:25;;;;;;;;;;;;;;;26.00;44.30;96239.94;588353;241;64712;-62
2023/03/08 09:28:52;;;;;;;;;;;;;;;26.00;43.31;96233.73;588402;241;63063;-61
2023/03/08 09:31:20;;;;;;;;;;;;;;;26.03;42.72;96230.42;588203;241;67228;-61
2023/03/08 09:33:50;;;;;;;;;;;;;;;26.01;42.60;96225.35;588388;240;66534;-61
2023/03/08 09:36:18;;;;;;;;;;;;;;;26.02;44.30;96224.23;588360;237;65114;-61
2023/03/08 09:38:47;;;;;;;;;;;;;;;26.05;43.28;96222.80;588291;241;67045;-61
2023/03/08 09:41:32;;;;;;;;;;;;;;;26.05;41.96;96222.80;588246;241;67042;-61
2023/03/08 09:44:06;;;;;;;;;;;;;;;26.05;43.64;96222.80;587589;241;63859;-60
2023/03/08 09:46:35;;;;;;;;;;;;;;;26.05;42.83;96228.18;588127;241;64029;-62
2023/03/08 09:49:04;;;;;;;;;;;;;;;26.06;43.31;96224.39;588348;241;66798;-59
2023/03/08 09:51:34;;;;;;;;;;;;;;;26.07;43.92;96215.98;588346;241;64982;-60
2023/03/08 09:54:06;;;;;;;;;;;;;;;26.08;45.15;96222.95;587952;241;64640;-62
2023/03/08 09:56:40;;;;;;;;;;;;;;;26.08;42.95;96222.14;588132;241;67075;-62
2023/03/08 09:59:09;;;;;;;;;;;;;;;26.08;42.39;96211.38;588310;241;65235;-62
2023/03/08 10:01:39;;;;;;;;;;;;;;;26.09;42.37;96218.36;588280;241;66999;-62
2023/03/08 10:04:16;;;;;;;;;;;;;;;26.08;43.04;96216.77;588345;241;67065;-61
2023/03/08 10:06:55;;;;;;;;;;;;;;;26.09;43.30;96211.06;588038;241;65048;-61
2023/03/08 10:09:24;;;;;;;;;;;;;;;26.06;41.24;96219.01;588227;241;67289;-61
2023/03/08 10:11:53;;;;;;;;;;;;;;;26.07;42.78;96220.58;588410;241;67111;-61
2023/03/08 10:14:22;;;;;;;;;;;;;;;26.04;45.58;96210.45;587500;241;62903;-60
2023/03/08 10:16:51;;;;;;;;;;;;;;;25.99;39.76;96208.72;588053;241;67116;-60
2023/03/08 10:19:23;;;;;;;;;;;;;;;26.00;44.98;96214.89;588290;241;64763;-61
2023/03/08 10:21:51;;;;;;;;;;;;;;;25.99;43.98;96213.33;588096;241;65051;-61
2023/03/08 10:24:25;;;;;;;;;;;;;;;25.98;44.40;96206.37;588365;241;65435;-63
2023/03/08 10:26:49;;;;;;;;;;;;;;;25.97;45.79;96204.77;588234;240;67122;-61
2023/03/08 10:29:17;;;;;;;;;;;;;;;25.96;45.34;96197.82;588307;241;65216;-60
2023/03/08 10:31:45;;;;;;;;;;;;;;;25.94;44.57;96194.66;588280;241;67231;-63
2023/03/08 10:34:18;;;;;;;;;;;;;;;25.95;44.96;96196.25;588380;241;65059;-60
2023/03/08 10:37:01;;;;;;;;;;;;;;;25.93;46.16;96199.25;588510;241;65073;-61
2023/03/08 10:39:29;;;;;;;;;;;;;;;25.94;44.01;96208.11;588517;241;67412;-60
2023/03/08 10:41:58;;;;;;;;;;;;;;;25.92;44.00;96197.69;588509;241;67123;-60
2023/03/08 10:44:35;;;;;;;;;;;;;;;25.93;45.76;96198.47;588498;241;65186;-61
2023/03/08 10:47:04;;;;;;;;;;;;;;;25.93;44.24;96183.10;588468;241;65035;-61
2023/03/08 10:49:31;;;;;;;;;;;;;;;25.93;45.97;96183.10;588494;241;66884;-60
2023/03/08 10:52:00;;;;;;;;;;;;;;;25.91;44.67;96183.41;588527;241;62924;-61
2023/03/08 10:54:28;;;;;;;;;;;;;;;25.91;45.59;96183.41;588516;241;64904;-60
2023/03/08 10:56:57;;;;;;;;;;;;;;;25.92;45.70;96181.53;588403;241;66049;-61
2023/03/08 10:59:34;;;;;;;;;;;;;;;25.93;46.22;96182.31;588511;241;64926;-61
2023/03/08 11:02:01;;;;;;;;;;;;;;;25.94;45.81;96173.12;588328;241;65152;-61
2023/03/08 11:04:29;;;;;;;;;;;;;;;25.92;45.08;96173.45;588445;241;64850;-59
2023/03/08 11:06:57;;;;;;;;;;;;;;;25.91;44.90;96169.17;588492;241;62913;-59
2023/03/08 11:09:27;;;;;;;;;;;;;;;25.90;49.19;96173.77;588527;241;67323;-62
2023/03/08 11:11:58;;;;;;;;;;;;;;;25.91;45.40;96177.24;588451;241;64844;-63
2023/03/08 11:14:28;;;;;;;;;;;;;;;25.91;44.34;96167.27;588385;241;63561;-62
2023/03/08 11:17:03;;;;;;;;;;;;;;;25.93;42.38;96168.86;588469;241;64751;-61
2023/03/08 11:19:39;;;;;;;;;;;;;;;25.95;45.33;96153.18;588468;241;66943;-60
2023/03/08 11:22:11;;;;;;;;;;;;;;;25.98;41.68;96165.98;585030;241;65087;-60
2023/03/08 11:24:43;;;;;;;;;;;;;;;26.00;42.39;96156.48;588489;241;67511;-59
2023/03/08 11:27:15;;;;;;;;;;;;;;;26.01;42.62;96154.57;588398;241;67267;-60
2023/03/08 11:30:00;;;;;;;;;;;;;;;26.02;43.31;96153.45;588522;241;62844;-60
2023/03/08 11:32:41;;;;;;;;;;;;;;;26.03;43.09;96147.75;588297;241;64906;-60
2023/03/08 11:35:10;;;;;;;;;;;;;;;26.03;43.91;96149.66;588353;241;65066;-60
2023/03/08 11:37:45;;;;;;;;;;;;;;;26.01;41.16;96147.27;588514;241;62780;-59
2023/03/08 11:40:17;;;;;;;;;;;;;;;26.03;42.87;96136.20;588424;241;67227;-64
2023/03/08 11:42:49;;;;;;;;;;;;;;;26.03;40.83;96142.36;588557;241;66970;-59
2023/03/08 11:45:29;;;;;;;;;;;;;;;26.04;43.39;96135.86;588401;241;62655;-59
2023/03/08 11:47:58;;;;;;;;;;;;;;;26.04;42.44;96135.86;587686;241;64943;-59
2023/03/08 11:50:27;;;;;;;;;;;;;;;26.05;43.69;96125.87;587591;241;67139;-59
2023/03/08 11:53:02;;;;;;;;;;;;;;;26.05;42.15;96131.25;588363;241;63744;-59
2023/03/08 11:55:37;;;;;;;;;;;;;;;26.06;41.39;96122.08;588461;241;65016;-61
2023/03/08 11:58:06;;;;;;;;;;;;;;;26.06;42.03;96130.16;588453;241;67113;-59
2023/03/08 12:00:35;;;;;;;;;;;;;;;26.07;41.66;96112.88;587638;241;65205;-59
2023/03/08 12:03:16;;;;;;;;;;;;;;;26.07;42.63;96118.27;588513;241;67075;-59
2023/03/08 12:05:45;;;;;;;;;;;;;;;26.07;40.97;96123.64;588287;241;64750;-59
2023/03/08 12:08:20;;;;;;;;;;;;;;;26.06;43.47;96122.86;588460;241;65198;-59
2023/03/08 12:10:52;;;;;;;;;;;;;;;26.07;41.68;96123.64;581985;241;65126;-59
2023/03/08 12:13:34;;;;;;;;;;;;;;;26.08;43.57;96120.64;588498;241;65303;-59
2023/03/08 12:16:14;;;;;;;;;;;;;;;26.07;43.36;96119.05;588431;241;62695;-59
2023/03/08 12:18:47;;;;;;;;;;;;;;;26.06;44.10;96112.09;588488;241;65086;-60
2023/03/08 12:21:16;;;;;;;;;;;;;;;26.07;43.30;96104.80;588461;241;65068;-59
2023/03/08 12:23:44;;;;;;;;;;;;;;;26.06;42.54;96104.02;587594;241;62970;-60
2023/03/08 12:26:26;;;;;;;;;;;;;;;26.08;45.45;96103.67;588444;241;67265;-60
2023/03/08 12:28:55;;;;;;;;;;;;;;;26.07;43.61;96102.11;588212;241;65217;-60
2023/03/08 12:31:38;;;;;;;;;;;;;;;26.06;42.67;96097.84;588503;241;67378;-61
2023/03/08 12:34:24;;;;;;;;;;;;;;;26.06;44.78;96106.70;589971;238;69233;-61
2023/03/08 12:36:51;;;;;;;;;;;;;;;26.05;45.16;96097.03;583183;241;66963;-59
2023/03/08 12:39:33;;;;;;;;;;;;;;;26.05;43.56;96099.73;582356;243;63112;-62
2023/03/08 12:42:12;;;;;;;;;;;;;;;26.06;42.99;96105.92;582134;243;65148;-60
2023/03/08 12:44:41;;;;;;;;;;;;;;;26.06;41.42;96111.31;582398;243;64988;-60
2023/03/08 12:47:13;;;;;;;;;;;;;;;26.06;43.20;96105.92;582339;243;65338;-60
2023/03/08 12:49:43;;;;;;;;;;;;;;;26.05;43.75;96110.50;582392;243;67201;-59
2023/03/08 12:52:21;;;;;;;;;;;;;;;26.05;42.40;96107.80;581996;243;67092;-60
2023/03/08 12:54:58;;;;;;;;;;;;;;;26.06;43.48;96100.54;582344;243;62942;-60
2023/03/08 12:57:26;;;;;;;;;;;;;;;26.04;43.43;96098.16;582841;238;67886;-61
2023/03/08 13:00:04;;;;;;;;;;;;;;;26.02;41.21;96103.08;590644;238;67010;-60